Time;durP1;ratioP1;P1;durP2;ratioP2;P2;SDS_P1;SDS_P2;PMS_P1;PMS_P2;Temp;Humidity;BMP_temperature;BMP_pressure;BME280_temperature;BME280_humidity;BME280_pressure;Samples;Min_cycle;Max_cycle;Signal;HPM_P1;HPM_P2
2022/01/18 00:38:44;;;;;;;28.02;6.72;;;;;;;;;;6181590;23;20053;-94
2022/01/18 00:43:45;;;;;;;27.23;3.92;;;;;;;;;;6201690;23;20024;-94
2022/01/18 00:46:14;;;;;;;32.70;4.20;;;;;;;;;;6194950;23;20457;-94
2022/01/18 00:48:42;;;;;;;30.10;5.63;;;;;;;;;;6200035;23;19997;-93
2022/01/18 01:01:46;;;;;;;31.80;4.05;;;;;;;;;;6190136;22;20029;-94
2022/01/18 01:04:16;;;;;;;29.27;3.83;;;;;;;;;;6194744;22;20021;-94
2022/01/18 01:09:23;;;;;;;19.98;4.22;;;;;;;;;;6199596;22;20029;-94
2022/01/18 01:11:50;;;;;;;29.63;4.07;;;;;;;;;;6177363;23;20069;-94
2022/01/18 01:14:21;;;;;;;31.70;4.10;;;;;;;;;;6198662;22;20352;-94
2022/01/18 01:53:26;;;;;;;15.38;3.15;;;;;;;;;;6193076;23;20028;-94
2022/01/18 01:55:53;;;;;;;19.08;3.60;;;;;;;;;;6178664;23;19993;-94
2022/01/18 01:58:20;;;;;;;22.45;4.25;;;;;;;;;;6177429;23;20001;-94
2022/01/18 02:00:55;;;;;;;10.57;2.40;;;;;;;;;;6179199;23;20001;-94
2022/01/18 02:08:56;;;;;;;20.35;2.78;;;;;;;;;;6173765;23;20049;-94
2022/01/18 02:22:02;;;;;;;17.55;3.70;;;;;;;;;;6201362;23;19996;-93
2022/01/18 02:24:27;;;;;;;23.45;3.70;;;;;;;;;;6201814;23;20017;-94
2022/01/18 02:26:53;;;;;;;14.63;2.97;;;;;;;;;;6197209;23;20009;-94
2022/01/18 02:29:19;;;;;;;16.85;3.35;;;;;;;;;;6172351;23;20000;-94
2022/01/18 02:31:45;;;;;;;17.73;2.83;;;;;;;;;;6199478;23;20097;-93
2022/01/18 02:34:13;;;;;;;24.77;4.07;;;;;;;;;;6195751;23;20001;-94
2022/01/18 02:36:38;;;;;;;23.75;3.38;;;;;;;;;;6194352;23;20056;-93
2022/01/18 02:39:04;;;;;;;16.48;3.22;;;;;;;;;;6193649;23;20004;-94
2022/01/18 02:41:39;;;;;;;18.95;3.30;;;;;;;;;;6199820;23;20001;-94
2022/01/18 02:44:15;;;;;;;24.65;3.42;;;;;;;;;;6197544;23;20031;-94
2022/01/18 02:46:49;;;;;;;20.42;3.22;;;;;;;;;;6157026;23;20017;-94
2022/01/18 02:49:18;;;;;;;19.42;3.22;;;;;;;;;;6185810;23;20024;-93
2022/01/18 02:51:44;;;;;;;23.05;3.35;;;;;;;;;;6203537;23;20001;-93
2022/01/18 02:54:15;;;;;;;21.35;3.38;;;;;;;;;;6201105;23;20071;-94
2022/01/18 02:56:43;;;;;;;;;;;;;;;;;;6198017;23;20366;-94
2022/01/18 03:12:06;;;;;;;20.27;3.42;;;;;;;;;;6200300;22;20032;-94
2022/01/18 03:14:35;;;;;;;19.58;3.47;;;;;;;;;;6200126;23;20021;-94
2022/01/18 03:17:02;;;;;;;34.95;8.32;;;;;;;;;;6203366;23;20019;-94
2022/01/18 03:19:35;;;;;;;18.48;3.38;;;;;;;;;;6203341;23;19996;-94
2022/01/18 03:22:13;;;;;;;25.20;3.67;;;;;;;;;;6194191;23;20001;-94
2022/01/18 03:28:05;;;;;;;23.10;4.00;;;;;;;;;;6167781;23;20059;-93
2022/01/18 03:30:32;;;;;;;23.15;4.53;;;;;;;;;;6195601;23;20001;-94
2022/01/18 03:32:58;;;;;;;25.38;4.57;;;;;;;;;;6198088;23;20069;-93
2022/01/18 03:35:24;;;;;;;27.08;5.18;;;;;;;;;;6194686;23;20103;-94
2022/01/18 03:37:51;;;;;;;28.05;4.88;;;;;;;;;;6199227;23;20005;-94
2022/01/18 03:40:17;;;;;;;23.05;4.97;;;;;;;;;;6193984;23;20001;-94
2022/01/18 03:42:45;;;;;;;22.83;3.80;;;;;;;;;;6174244;23;20001;-94
2022/01/18 03:47:48;;;;;;;27.85;6.25;;;;;;;;;;6193822;23;20056;-94
2022/01/18 03:50:15;;;;;;;42.03;7.22;;;;;;;;;;6195905;23;20005;-94
2022/01/18 03:52:41;;;;;;;27.05;4.80;;;;;;;;;;6187597;23;20001;-93
2022/01/18 03:55:07;;;;;;;33.00;4.65;;;;;;;;;;6189576;23;20013;-94
2022/01/18 03:57:33;;;;;;;34.42;4.55;;;;;;;;;;6191648;23;19993;-94
2022/01/18 03:59:58;;;;;;;36.45;5.80;;;;;;;;;;6191820;23;20005;-94
2022/01/18 04:02:25;;;;;;;32.70;5.65;;;;;;;;;;6193861;23;20345;-93
2022/01/18 04:07:30;;;;;;;31.13;6.03;;;;;;;;;;6165364;22;20045;-94
2022/01/18 04:10:22;;;;;;;;;;;;;;;;;;;;;
2022/01/18 04:15:16;;;;;;;33.40;6.00;;;;;;;;;;6199083;23;20040;-94
2022/01/18 04:28:40;;;;;;;44.50;6.68;;;;;;;;;;6197865;22;20032;-94
2022/01/18 04:33:41;;;;;;;35.97;6.10;;;;;;;;;;6181073;23;21093;-94
2022/01/18 04:53:17;;;;;;;44.55;8.02;;;;;;;;;;6186654;23;20036;-93
2022/01/18 04:55:53;;;;;;;59.58;8.90;;;;;;;;;;6145091;23;20050;-94
2022/01/18 05:03:52;;;;;;;47.85;6.63;;;;;;;;;;6192719;22;20025;-94
2022/01/18 05:08:55;;;;;;;55.45;8.63;;;;;;;;;;6178108;22;20098;-94
2022/01/18 05:24:23;;;;;;;52.43;8.80;;;;;;;;;;6200871;23;20005;-94
2022/01/18 05:32:38;;;;;;;49.65;8.10;;;;;;;;;;6181581;23;20060;-94
2022/01/18 05:35:24;;;;;;;59.63;8.70;;;;;;;;;;6171742;23;20028;-94
2022/01/18 05:37:49;;;;;;;50.55;7.75;;;;;;;;;;6200623;23;20145;-94
2022/01/18 05:40:16;;;;;;;41.47;7.03;;;;;;;;;;6207667;23;19997;-94
2022/01/18 05:42:44;;;;;;;45.95;7.20;;;;;;;;;;6203123;23;20009;-93
2022/01/18 05:45:15;;;;;;;62.35;7.95;;;;;;;;;;6178083;23;20012;-94
2022/01/18 05:59:06;;;;;;;42.53;8.43;;;;;;;;;;6160477;23;20017;31
2022/01/18 06:01:47;;;;;;;47.05;7.38;;;;;;;;;;6180073;23;20330;-94
2022/01/18 06:06:50;;;;;;;47.35;7.85;;;;;;;;;;6200787;23;20009;-94
